Time;durP1;ratioP1;P1;durP2;ratioP2;P2;SDS_P1;SDS_P2;PMS_P1;PMS_P2;Temp;Humidity;BMP_temperature;BMP_pressure;BME280_temperature;BME280_humidity;BME280_pressure;Samples;Min_cycle;Max_cycle;Signal;HPM_P1;HPM_P2
2021/01/17 00:00:00;;;;;;;14.80;9.10;;;-1.40;99.90;;;;;;5023822;28;20234;-49
2021/01/17 00:02:26;;;;;;;15.53;9.77;;;-1.30;99.90;;;;;;5012489;28;20836;-49
2021/01/17 00:04:51;;;;;;;17.57;10.27;;;-1.40;99.90;;;;;;5009069;28;20279;-47
2021/01/17 00:07:17;;;;;;;20.17;9.90;;;-1.30;99.90;;;;;;5019399;28;20720;-55
2021/01/17 00:09:42;;;;;;;12.70;9.27;;;-1.40;99.90;;;;;;5020011;28;20184;-53
2021/01/17 00:12:09;;;;;;;17.70;9.77;;;-1.40;99.90;;;;;;5024043;28;20200;-53
2021/01/17 00:14:36;;;;;;;19.83;10.27;;;-1.40;99.90;;;;;;5020038;28;20200;-53
2021/01/17 00:17:02;;;;;;;14.03;9.17;;;-1.40;99.90;;;;;;5013444;28;20195;-55
2021/01/17 00:19:27;;;;;;;13.03;8.73;;;-1.40;99.90;;;;;;5004108;28;20203;-53
2021/01/17 00:21:53;;;;;;;15.30;9.37;;;-1.40;99.90;;;;;;5023669;28;20204;-51
2021/01/17 00:24:18;;;;;;;15.07;9.13;;;-1.50;99.90;;;;;;5006041;28;20354;-48
2021/01/17 00:26:44;;;;;;;16.23;9.70;;;-1.50;99.90;;;;;;5022943;28;20225;-50
2021/01/17 00:29:09;;;;;;;14.83;8.50;;;-1.50;99.90;;;;;;5018749;28;20575;-55
2021/01/17 00:31:35;;;;;;;18.03;9.33;;;-1.50;99.90;;;;;;5021284;28;20280;-51
2021/01/17 00:34:02;;;;;;;19.27;8.93;;;-1.50;99.90;;;;;;5011674;28;20204;-55
2021/01/17 00:36:27;;;;;;;15.60;9.30;;;-1.50;99.90;;;;;;5007284;28;20184;-51
2021/01/17 00:38:53;;;;;;;13.37;9.20;;;-1.50;99.90;;;;;;5012532;28;20192;-52
2021/01/17 00:41:18;;;;;;;15.67;9.87;;;-1.50;99.90;;;;;;5019523;28;20172;-46
2021/01/17 00:43:44;;;;;;;16.63;9.47;;;-1.50;99.90;;;;;;5022713;28;20672;-48
2021/01/17 00:46:09;;;;;;;16.10;9.93;;;-1.50;99.90;;;;;;5019397;28;20191;-54
2021/01/17 00:48:35;;;;;;;13.07;8.57;;;-1.50;99.90;;;;;;5013260;28;20188;-52
2021/01/17 00:51:00;;;;;;;13.10;8.73;;;-1.60;99.90;;;;;;5002939;28;20694;-51
2021/01/17 00:53:26;;;;;;;16.60;9.47;;;-1.60;99.90;;;;;;5020614;28;20226;-49
2021/01/17 00:55:51;;;;;;;15.03;8.93;;;-1.60;99.90;;;;;;5022861;28;20180;-55
2021/01/17 00:58:17;;;;;;;16.47;9.97;;;-1.60;99.90;;;;;;5018629;28;20272;-47
2021/01/17 01:00:42;;;;;;;16.20;9.33;;;-1.60;99.90;;;;;;5022159;28;20238;-47
2021/01/17 01:03:09;;;;;;;14.60;9.23;;;-1.60;99.90;;;;;;5011338;28;20211;-50
2021/01/17 01:05:35;;;;;;;16.60;10.43;;;-1.60;99.90;;;;;;5002514;28;20189;-51
2021/01/17 01:08:06;;;;;;;15.50;9.03;;;-1.70;99.90;;;;;;5019701;28;20230;-52
2021/01/17 01:10:31;;;;;;;14.80;9.57;;;-1.70;99.90;;;;;;5021874;28;20184;-56
2021/01/17 01:12:57;;;;;;;13.83;8.30;;;-1.70;99.90;;;;;;5022080;28;20200;-52
2021/01/17 01:15:22;;;;;;;14.37;8.93;;;-1.70;99.90;;;;;;5020327;28;20176;-51
2021/01/17 01:17:48;;;;;;;15.53;9.30;;;-1.60;99.90;;;;;;5023829;28;20216;-52
2021/01/17 01:20:14;;;;;;;15.30;9.23;;;-1.70;99.90;;;;;;5008005;28;20245;-48
2021/01/17 01:22:43;;;;;;;14.93;8.93;;;-1.70;99.90;;;;;;5009477;28;20269;-50
2021/01/17 01:25:10;;;;;;;14.13;9.10;;;-1.70;99.90;;;;;;5020489;28;20199;-57
2021/01/17 01:27:35;;;;;;;14.50;9.97;;;-1.60;99.90;;;;;;5024083;28;20199;-51
2021/01/17 01:30:01;;;;;;;14.97;8.97;;;-1.60;99.90;;;;;;5020957;28;20719;-54
2021/01/17 01:32:27;;;;;;;20.37;9.67;;;-1.60;99.90;;;;;;5020772;28;20862;-49
2021/01/17 01:34:52;;;;;;;15.63;9.37;;;-1.70;99.90;;;;;;5021531;28;20180;-56
2021/01/17 01:37:18;;;;;;;17.20;9.53;;;-1.70;99.90;;;;;;4996624;28;20184;-49
2021/01/17 01:39:43;;;;;;;14.70;8.30;;;-1.70;99.90;;;;;;5021232;28;20208;-49
2021/01/17 01:42:09;;;;;;;18.03;10.23;;;-1.70;99.90;;;;;;5018705;28;20192;-50
2021/01/17 01:44:34;;;;;;;16.07;9.53;;;-1.70;99.90;;;;;;5022048;28;20207;-49
2021/01/17 01:47:02;;;;;;;16.07;9.23;;;-1.70;99.90;;;;;;5020487;28;20191;-50
2021/01/17 01:49:27;;;;;;;16.00;9.50;;;-1.70;99.90;;;;;;5019814;28;20428;-51
2021/01/17 01:51:55;;;;;;;15.00;8.53;;;-1.70;99.90;;;;;;5011657;28;20195;-49
2021/01/17 01:54:21;;;;;;;21.30;10.30;;;-1.80;99.90;;;;;;5008299;28;20992;-49
2021/01/17 01:56:46;;;;;;;13.50;9.03;;;-1.70;99.90;;;;;;5021879;28;20190;-49
2021/01/17 01:59:12;;;;;;;16.67;10.23;;;-1.70;99.90;;;;;;5018250;28;20179;-52
2021/01/17 02:01:40;;;;;;;17.63;9.40;;;-1.70;99.90;;;;;;5022448;28;20271;-52
2021/01/17 02:04:06;;;;;;;16.13;9.23;;;-1.70;99.90;;;;;;5019751;28;20192;-54
2021/01/17 02:06:32;;;;;;;14.20;8.87;;;-1.80;99.90;;;;;;5021331;28;20180;-48
2021/01/17 02:09:03;;;;;;;15.03;8.97;;;-1.80;99.90;;;;;;5005887;28;20720;-55
2021/01/17 02:11:51;;;;;;;15.33;9.77;;;-1.80;99.90;;;;;;5022939;28;20176;-47
2021/01/17 02:14:35;;;;;;;17.47;10.03;;;-1.80;99.90;;;;;;5021545;28;20396;-46
2021/01/17 02:17:04;;;;;;;17.73;9.73;;;-1.80;99.90;;;;;;5017669;28;20191;-55
2021/01/17 02:19:35;;;;;;;14.87;9.67;;;-1.80;99.90;;;;;;5024295;28;20180;-47
2021/01/17 02:22:02;;;;;;;15.13;8.90;;;-1.80;99.90;;;;;;5019511;28;20208;-54
2021/01/17 02:24:33;;;;;;;13.50;8.77;;;-1.80;99.90;;;;;;5011067;28;20204;-50
2021/01/17 02:27:00;;;;;;;18.37;9.77;;;-1.80;99.90;;;;;;5025173;28;20203;-53
2021/01/17 02:29:28;;;;;;;16.07;9.67;;;-1.80;99.90;;;;;;5024855;28;20259;-51
2021/01/17 02:32:00;;;;;;;14.93;9.03;;;-1.70;99.90;;;;;;5026598;28;20192;-53
2021/01/17 02:34:29;;;;;;;15.80;9.60;;;-1.70;99.90;;;;;;5016434;28;20228;-48
2021/01/17 02:37:25;;;;;;;17.87;8.83;;;-1.70;99.90;;;;;;5024674;28;20190;-52
2021/01/17 02:40:26;;;;;;;18.97;9.77;;;-1.70;99.90;;;;;;5011669;28;20196;-57
2021/01/17 02:42:52;;;;;;;16.90;8.67;;;-1.70;99.90;;;;;;5024164;28;20287;-57
2021/01/17 02:45:19;;;;;;;16.97;9.40;;;-1.70;99.90;;;;;;5022267;28;20278;-49
2021/01/17 02:47:45;;;;;;;15.97;9.07;;;-1.70;99.90;;;;;;5026839;28;20212;-52
2021/01/17 02:50:11;;;;;;;16.67;9.97;;;-1.60;99.90;;;;;;5022443;28;20366;-55
2021/01/17 02:52:44;;;;;;;14.43;8.90;;;-1.60;99.90;;;;;;5025408;28;20192;-47
2021/01/17 02:55:10;;;;;;;16.93;8.60;;;-1.60;99.90;;;;;;5007571;28;20298;-57
2021/01/17 02:57:37;;;;;;;15.27;9.40;;;-1.60;99.90;;;;;;5026127;28;20712;-51
2021/01/17 03:00:07;;;;;;;16.70;9.40;;;-1.50;99.90;;;;;;5022305;28;20208;-53
2021/01/17 03:02:35;;;;;;;17.30;9.33;;;-1.50;99.90;;;;;;5024286;28;20243;-50
2021/01/17 03:05:05;;;;;;;17.10;10.00;;;-1.50;99.90;;;;;;5022975;28;20194;-52
2021/01/17 03:07:34;;;;;;;16.17;9.70;;;-1.50;99.90;;;;;;5023925;28;20626;-51
2021/01/17 03:10:01;;;;;;;16.00;9.03;;;-1.50;99.90;;;;;;5016366;28;20194;-50
2021/01/17 03:12:27;;;;;;;16.40;10.07;;;-1.40;99.90;;;;;;5013484;28;20195;-50
2021/01/17 03:14:54;;;;;;;17.50;10.03;;;-1.50;99.90;;;;;;5024815;28;20188;-53
2021/01/17 03:17:19;;;;;;;16.23;9.40;;;-1.50;99.90;;;;;;5022082;28;20220;-51
2021/01/17 03:19:45;;;;;;;18.03;10.10;;;-1.50;99.90;;;;;;5025302;28;20259;-50
2021/01/17 03:22:10;;;;;;;16.70;9.90;;;-1.40;99.90;;;;;;5020405;28;20204;-51
2021/01/17 03:24:36;;;;;;;17.33;9.77;;;-1.40;99.90;;;;;;5025203;28;20200;-52
2021/01/17 03:27:01;;;;;;;17.13;10.53;;;-1.40;99.90;;;;;;5008230;28;20191;-52
2021/01/17 03:29:27;;;;;;;17.40;10.33;;;-1.40;99.90;;;;;;5022890;28;20256;-52
2021/01/17 03:31:52;;;;;;;16.57;10.33;;;-1.40;99.90;;;;;;5024786;28;20680;-54
2021/01/17 03:34:18;;;;;;;19.70;10.03;;;-1.40;99.90;;;;;;5021465;28;20249;-55
2021/01/17 03:36:43;;;;;;;15.70;9.77;;;-1.40;99.90;;;;;;5024844;28;20184;-54
2021/01/17 03:39:09;;;;;;;17.67;10.63;;;-1.30;99.90;;;;;;5021231;28;20289;-52
2021/01/17 03:41:34;;;;;;;18.73;10.77;;;-1.30;99.90;;;;;;5009174;28;20189;-53
2021/01/17 03:44:00;;;;;;;16.53;10.23;;;-1.30;99.90;;;;;;5021648;28;20227;-53
2021/01/17 03:46:27;;;;;;;18.73;10.47;;;-1.30;99.90;;;;;;5021910;28;20227;-50
2021/01/17 03:48:53;;;;;;;18.90;10.50;;;-1.30;99.90;;;;;;5023443;28;20192;-50
2021/01/17 03:51:19;;;;;;;18.47;10.63;;;-1.30;99.90;;;;;;5020250;28;20168;-50
2021/01/17 03:53:44;;;;;;;19.57;10.83;;;-1.30;99.90;;;;;;5023833;28;20298;-50
2021/01/17 03:56:10;;;;;;;16.70;10.70;;;-1.30;99.90;;;;;;5006622;28;20188;-50
2021/01/17 03:58:35;;;;;;;20.77;10.53;;;-1.20;99.90;;;;;;5022466;28;20560;-48
2021/01/17 04:01:01;;;;;;;16.87;10.60;;;-1.20;99.90;;;;;;5009010;28;20200;-51
2021/01/17 04:03:26;;;;;;;15.83;10.90;;;-1.20;99.90;;;;;;5020720;28;20294;-54
2021/01/17 04:05:52;;;;;;;18.63;11.40;;;-1.20;99.90;;;;;;5020565;28;20195;-48
2021/01/17 04:08:17;;;;;;;15.77;10.67;;;-1.20;99.90;;;;;;5021558;28;20210;-54
2021/01/17 04:10:43;;;;;;;19.43;11.40;;;-1.10;99.90;;;;;;5011784;28;20183;-48
2021/01/17 04:13:08;;;;;;;18.83;10.70;;;-1.10;99.90;;;;;;5007054;28;20524;-47
2021/01/17 04:15:34;;;;;;;19.47;11.00;;;-1.20;99.90;;;;;;5018168;28;20184;-53
2021/01/17 04:17:59;;;;;;;18.07;10.53;;;-1.20;99.90;;;;;;5021475;28;20582;-51
2021/01/17 04:20:24;;;;;;;18.37;10.73;;;-1.20;99.90;;;;;;5020779;28;20199;-53
2021/01/17 04:22:50;;;;;;;21.40;12.30;;;-1.20;99.90;;;;;;5021061;28;20220;-51
2021/01/17 04:25:15;;;;;;;21.13;11.30;;;-1.20;99.90;;;;;;5023303;28;20188;-50
2021/01/17 04:27:41;;;;;;;18.63;10.90;;;-1.20;99.90;;;;;;5004834;28;20204;-48
2021/01/17 04:30:07;;;;;;;20.50;11.57;;;-1.20;99.90;;;;;;5019075;28;20633;-48
2021/01/17 04:32:34;;;;;;;18.90;10.60;;;-1.20;99.90;;;;;;5024373;28;20207;-55
2021/01/17 04:34:59;;;;;;;20.67;11.57;;;-1.20;99.90;;;;;;5018247;28;20180;-52
2021/01/17 04:37:25;;;;;;;20.40;11.53;;;-1.20;99.90;;;;;;5011285;28;20864;-54
2021/01/17 04:39:51;;;;;;;17.33;10.93;;;-1.10;99.90;;;;;;5020216;28;20706;-47
2021/01/17 04:42:19;;;;;;;19.37;11.27;;;-1.20;99.90;;;;;;5023806;28;20256;-54
2021/01/17 04:44:53;;;;;;;20.70;11.07;;;-1.20;99.90;;;;;;5001650;28;20250;-47
2021/01/17 04:47:21;;;;;;;15.93;10.70;;;-1.10;99.90;;;;;;5014800;28;20805;-48
2021/01/17 04:49:53;;;;;;;19.87;11.90;;;-1.10;99.90;;;;;;5021237;28;20216;-48
2021/01/17 04:52:21;;;;;;;20.50;11.57;;;-1.10;99.90;;;;;;5011078;28;20261;-48
2021/01/17 04:54:47;;;;;;;19.90;11.03;;;-1.10;99.90;;;;;;5022914;28;20216;-46
2021/01/17 04:57:31;;;;;;;19.53;11.43;;;-1.10;99.90;;;;;;5019770;28;20188;-54
2021/01/17 05:00:05;;;;;;;21.40;10.90;;;-1.10;99.90;;;;;;5007424;28;20571;-52
2021/01/17 05:02:42;;;;;;;20.87;11.47;;;-1.20;99.90;;;;;;5017229;28;20379;-48
2021/01/17 05:05:22;;;;;;;22.73;11.80;;;-1.20;99.90;;;;;;5017608;28;20180;-53
2021/01/17 05:07:50;;;;;;;19.23;11.40;;;-1.10;99.90;;;;;;5009156;28;20192;-47
2021/01/17 05:10:37;;;;;;;17.90;11.17;;;-1.10;99.90;;;;;;5020006;28;20184;-55
2021/01/17 05:13:11;;;;;;;22.30;11.23;;;-1.10;99.90;;;;;;5023027;28;20324;-55
2021/01/17 05:15:42;;;;;;;22.70;11.90;;;-1.20;99.90;;;;;;5009115;28;20222;-51
2021/01/17 05:18:08;;;;;;;24.63;11.87;;;-1.10;99.90;;;;;;5021825;28;20675;-52
2021/01/17 05:20:34;;;;;;;20.80;11.60;;;-1.10;99.90;;;;;;5022070;28;20187;-51
2021/01/17 05:23:00;;;;;;;20.03;12.37;;;-1.10;99.90;;;;;;5013850;28;20220;-51
2021/01/17 05:25:28;;;;;;;21.60;11.43;;;-1.20;99.90;;;;;;5020540;28;20180;-49
2021/01/17 05:27:55;;;;;;;24.47;12.00;;;-1.10;99.90;;;;;;5023653;28;20209;-53
2021/01/17 05:30:21;;;;;;;21.30;12.40;;;-1.20;99.90;;;;;;5004525;28;20196;-50
2021/01/17 05:32:52;;;;;;;22.77;12.03;;;-1.10;99.90;;;;;;5021984;28;20287;-53
2021/01/17 05:35:23;;;;;;;21.10;11.73;;;-1.10;99.90;;;;;;5019463;28;20914;-55
2021/01/17 05:37:53;;;;;;;20.83;12.17;;;-1.10;99.90;;;;;;5016824;28;20203;-53
2021/01/17 05:40:20;;;;;;;22.37;11.10;;;-1.10;99.90;;;;;;5019244;28;20191;-52
2021/01/17 05:42:47;;;;;;;20.23;11.67;;;-1.10;99.90;;;;;;5023345;28;20224;-52
2021/01/17 05:45:14;;;;;;;24.37;12.67;;;-1.20;99.90;;;;;;5005680;28;20568;-52
2021/01/17 05:47:41;;;;;;;21.80;12.17;;;-1.20;99.90;;;;;;5027273;28;20214;-53
2021/01/17 05:50:10;;;;;;;22.63;12.17;;;-1.20;99.90;;;;;;5025530;28;20176;-51
2021/01/17 05:52:36;;;;;;;21.83;12.13;;;-1.20;99.90;;;;;;5021160;28;20200;-49
2021/01/17 05:55:02;;;;;;;23.43;12.50;;;-1.20;99.90;;;;;;5027363;28;20187;-56
2021/01/17 05:57:29;;;;;;;20.30;11.70;;;-1.30;99.90;;;;;;5024594;28;20312;-55
2021/01/17 05:59:55;;;;;;;20.57;10.83;;;-1.30;99.90;;;;;;5026759;28;20583;-50
2021/01/17 06:02:22;;;;;;;23.40;12.60;;;-1.40;99.90;;;;;;5008446;28;20222;-53
2021/01/17 06:04:49;;;;;;;19.80;11.60;;;-1.30;99.90;;;;;;5026519;28;20180;-51
2021/01/17 06:07:16;;;;;;;21.43;12.30;;;-1.30;99.90;;;;;;5021753;28;20222;-54
2021/01/17 06:09:43;;;;;;;20.67;11.90;;;-1.40;99.90;;;;;;5016177;28;20489;-53
2021/01/17 06:12:10;;;;;;;22.37;12.47;;;-1.40;99.90;;;;;;5026771;28;20192;-52
2021/01/17 06:14:36;;;;;;;22.97;11.93;;;-1.40;99.90;;;;;;5022810;28;20618;-51
2021/01/17 06:17:03;;;;;;;21.77;11.57;;;-1.40;99.90;;;;;;5010890;28;20250;-54
2021/01/17 06:19:38;;;;;;;23.70;12.03;;;-1.40;99.90;;;;;;5025073;28;20187;-51
2021/01/17 06:22:06;;;;;;;22.67;12.97;;;-1.40;99.90;;;;;;5026124;28;20284;-51
2021/01/17 06:24:37;;;;;;;20.73;11.90;;;-1.40;99.90;;;;;;5018746;28;20220;-53
2021/01/17 06:27:04;;;;;;;20.37;11.37;;;-1.50;99.90;;;;;;5025121;28;20219;-49
2021/01/17 06:29:41;;;;;;;19.70;11.80;;;-1.50;99.90;;;;;;5023853;28;20275;-54
2021/01/17 06:32:17;;;;;;;18.93;11.70;;;-1.50;99.90;;;;;;5011329;28;20192;-47
2021/01/17 06:34:48;;;;;;;22.97;12.13;;;-1.60;99.90;;;;;;5021423;28;20200;-47
2021/01/17 06:37:15;;;;;;;22.17;11.53;;;-1.60;99.90;;;;;;5025384;28;20184;-52
2021/01/17 06:39:43;;;;;;;23.87;11.40;;;-1.60;99.90;;;;;;5016873;28;20187;-53
2021/01/17 06:42:13;;;;;;;20.87;11.90;;;-1.60;99.90;;;;;;5023399;28;20216;-50
2021/01/17 06:44:39;;;;;;;22.30;12.33;;;-1.70;99.90;;;;;;5019287;28;20207;-47
2021/01/17 06:47:34;;;;;;;22.20;12.07;;;-1.70;99.90;;;;;;5004114;28;20267;-49
2021/01/17 06:50:00;;;;;;;20.47;11.83;;;-1.70;99.90;;;;;;5021022;28;20985;-52
2021/01/17 06:52:25;;;;;;;19.87;11.40;;;-1.70;99.90;;;;;;5025722;28;20218;-53
2021/01/17 06:54:52;;;;;;;21.80;11.33;;;-1.70;99.90;;;;;;5017213;28;20208;-52
2021/01/17 06:57:20;;;;;;;20.20;11.63;;;-1.70;99.90;;;;;;5022015;28;20192;-49
2021/01/17 06:59:51;;;;;;;22.43;12.87;;;-1.80;99.90;;;;;;5021285;28;20184;-53
2021/01/17 07:02:37;;;;;;;19.93;11.17;;;-1.70;99.90;;;;;;5011113;28;20212;-53
2021/01/17 07:05:21;;;;;;;17.03;11.30;;;-1.80;99.90;;;;;;5022679;28;20277;-47
2021/01/17 07:08:20;;;;;;;21.83;11.27;;;-1.90;99.90;;;;;;5016478;28;20179;-47
2021/01/17 07:10:52;;;;;;;23.47;12.53;;;-1.80;99.90;;;;;;4997627;28;20204;-51
2021/01/17 07:13:21;;;;;;;21.83;12.40;;;-1.90;99.90;;;;;;5012180;28;20919;-49
2021/01/17 07:15:49;;;;;;;23.10;12.20;;;-1.90;99.90;;;;;;5019255;28;20230;-51
2021/01/17 07:18:16;;;;;;;22.23;12.07;;;-2.00;99.90;;;;;;4999660;28;22095;-50
2021/01/17 07:20:48;;;;;;;22.17;11.63;;;-2.00;99.90;;;;;;5024813;28;20684;-51
2021/01/17 07:23:18;;;;;;;28.37;13.37;;;-2.00;99.90;;;;;;5021630;28;20203;-52
2021/01/17 07:25:45;;;;;;;22.73;12.77;;;-2.00;99.90;;;;;;5014859;28;20188;-50
2021/01/17 07:28:15;;;;;;;22.30;11.20;;;-2.00;99.90;;;;;;5012053;28;20177;-51
2021/01/17 07:30:44;;;;;;;19.13;12.43;;;-2.00;99.90;;;;;;5019394;28;20180;-56
2021/01/17 07:33:10;;;;;;;22.70;12.23;;;-2.00;99.90;;;;;;5007422;28;20288;-48
2021/01/17 07:35:45;;;;;;;19.30;11.20;;;-2.10;99.90;;;;;;5017108;28;20196;-53
2021/01/17 07:38:14;;;;;;;22.93;11.80;;;-2.10;99.90;;;;;;5026561;28;20214;-51
2021/01/17 07:40:51;;;;;;;22.03;11.93;;;-2.10;99.90;;;;;;5022643;28;20286;-55
2021/01/17 07:43:18;;;;;;;22.93;11.80;;;-2.10;99.90;;;;;;5018408;28;20703;-47
2021/01/17 07:45:44;;;;;;;23.73;11.83;;;-2.10;99.90;;;;;;5022473;28;20184;-54
2021/01/17 07:48:11;;;;;;;19.70;12.10;;;-2.10;99.90;;;;;;5004073;28;20196;-51
2021/01/17 07:50:58;;;;;;;21.83;12.17;;;-2.10;99.90;;;;;;5014606;28;20192;-55
2021/01/17 07:53:26;;;;;;;21.33;11.67;;;-2.20;99.90;;;;;;5020727;28;20212;-54
2021/01/17 07:56:07;;;;;;;23.77;11.77;;;-2.20;99.90;;;;;;5021652;28;20917;-54
2021/01/17 07:58:37;;;;;;;22.40;12.60;;;-2.20;99.90;;;;;;5019117;28;20195;-52
2021/01/17 08:01:03;;;;;;;22.43;13.63;;;-2.20;99.90;;;;;;5023301;28;20226;-52
2021/01/17 08:03:29;;;;;;;25.47;13.00;;;-2.20;99.90;;;;;;5012704;28;20217;-51
2021/01/17 08:05:56;;;;;;;22.27;12.63;;;-2.20;99.90;;;;;;5007868;28;20185;-52
2021/01/17 08:08:34;;;;;;;23.60;13.17;;;-2.10;99.90;;;;;;5024915;28;20235;-53
2021/01/17 08:11:00;;;;;;;21.87;12.90;;;-2.10;99.90;;;;;;5022623;28;20172;-54
2021/01/17 08:13:30;;;;;;;23.13;12.40;;;-2.10;99.90;;;;;;5023942;28;20200;-52
2021/01/17 08:16:09;;;;;;;21.97;12.10;;;-2.10;99.90;;;;;;5021225;28;20184;-52
2021/01/17 08:18:39;;;;;;;21.40;12.27;;;-2.10;99.90;;;;;;5018997;28;20196;-54
2021/01/17 08:21:24;;;;;;;22.43;12.37;;;-2.00;99.90;;;;;;5008489;28;20287;-55
2021/01/17 08:24:12;;;;;;;24.20;14.17;;;-2.00;99.90;;;;;;5019321;28;20939;-52
2021/01/17 08:26:59;;;;;;;24.93;12.83;;;-2.00;99.90;;;;;;5014763;28;20693;-54
2021/01/17 08:29:26;;;;;;;27.93;13.20;;;-2.00;99.90;;;;;;5019412;28;20187;-53
2021/01/17 08:31:51;;;;;;;27.47;13.43;;;-2.00;99.90;;;;;;5019363;28;20363;-52
2021/01/17 08:34:24;;;;;;;25.20;13.17;;;-1.90;99.90;;;;;;5008018;28;20283;-49
2021/01/17 08:36:50;;;;;;;21.33;12.33;;;-1.80;99.90;;;;;;5005915;28;20261;-51
2021/01/17 08:39:43;;;;;;;22.90;13.57;;;-1.80;99.90;;;;;;5021274;28;20179;-49
2021/01/17 08:42:31;;;;;;;22.27;12.73;;;-1.70;99.90;;;;;;5018533;28;20207;-53
2021/01/17 08:44:58;;;;;;;23.77;12.07;;;-1.70;99.90;;;;;;5022641;28;20168;-53
2021/01/17 08:47:24;;;;;;;20.13;11.83;;;-1.70;99.90;;;;;;5016375;28;20657;-49
2021/01/17 08:49:51;;;;;;;21.97;12.47;;;-1.70;99.90;;;;;;5017873;28;20267;-53
2021/01/17 08:52:26;;;;;;;23.97;12.93;;;-1.70;99.90;;;;;;5007676;28;20194;-51
2021/01/17 08:54:52;;;;;;;19.93;12.80;;;-1.60;99.90;;;;;;5021184;28;20218;-53
2021/01/17 08:57:37;;;;;;;21.43;12.57;;;-1.60;99.90;;;;;;5021709;28;20840;-51
2021/01/17 09:00:08;;;;;;;20.33;12.77;;;-1.60;99.90;;;;;;5020454;28;20271;-53
2021/01/17 09:02:33;;;;;;;20.33;12.17;;;-1.50;99.90;;;;;;5024364;28;20632;-49
2021/01/17 09:04:58;;;;;;;20.73;12.73;;;-1.50;99.90;;;;;;5007866;28;20187;-53
2021/01/17 09:07:50;;;;;;;18.50;12.23;;;-1.50;99.90;;;;;;5006270;28;20635;-54
2021/01/17 09:10:17;;;;;;;24.37;13.07;;;-1.50;99.90;;;;;;5013188;28;20280;-55
2021/01/17 09:12:43;;;;;;;23.50;12.53;;;-1.50;99.90;;;;;;5022525;28;20278;-52
2021/01/17 09:15:19;;;;;;;24.03;13.87;;;-1.40;99.90;;;;;;5019248;28;20184;-54
2021/01/17 09:18:05;;;;;;;26.80;13.07;;;-1.40;99.90;;;;;;5017302;28;20187;-52
2021/01/17 09:20:34;;;;;;;25.30;13.60;;;-1.40;99.90;;;;;;5004795;28;20286;-52
2021/01/17 09:23:02;;;;;;;24.97;12.70;;;-1.30;99.90;;;;;;5008878;28;20227;-54
2021/01/17 09:25:28;;;;;;;26.37;13.77;;;-1.30;99.90;;;;;;5022659;28;20187;-55
2021/01/17 09:27:57;;;;;;;24.23;13.07;;;-1.30;99.90;;;;;;5021427;28;20265;-49
2021/01/17 09:30:23;;;;;;;24.07;12.77;;;-1.30;99.90;;;;;;5024832;28;20241;-54
2021/01/17 09:32:51;;;;;;;21.33;12.90;;;-1.20;99.90;;;;;;5023737;28;20229;-49
2021/01/17 09:35:16;;;;;;;21.40;12.13;;;-1.20;99.90;;;;;;5019493;28;20616;-52
2021/01/17 09:37:42;;;;;;;22.43;13.20;;;-1.20;99.90;;;;;;5017672;28;20211;-50
2021/01/17 09:40:08;;;;;;;25.00;13.20;;;-1.20;99.90;;;;;;5011071;28;20271;-50
2021/01/17 09:42:35;;;;;;;24.83;13.43;;;-1.20;99.90;;;;;;5015006;28;20311;-51
2021/01/17 09:45:04;;;;;;;24.83;13.63;;;-1.10;99.90;;;;;;5021416;28;20242;-51
2021/01/17 09:47:30;;;;;;;22.90;12.47;;;-1.10;99.90;;;;;;5023568;28;20187;-50
2021/01/17 09:50:06;;;;;;;22.77;11.97;;;-1.10;99.90;;;;;;5021559;28;20257;-48
2021/01/17 09:52:37;;;;;;;19.43;12.47;;;-1.10;99.90;;;;;;5019595;28;20203;-55
2021/01/17 09:55:07;;;;;;;21.27;12.47;;;-1.00;99.90;;;;;;5012894;28;20246;-48
2021/01/17 09:57:37;;;;;;;22.00;13.03;;;-1.00;99.90;;;;;;5017823;28;20257;-53
2021/01/17 10:00:06;;;;;;;18.00;11.63;;;-1.00;99.90;;;;;;5024086;28;20215;-46
2021/01/17 10:02:32;;;;;;;23.80;11.97;;;-1.00;99.90;;;;;;5022680;28;20299;-52
2021/01/17 10:04:58;;;;;;;22.07;13.40;;;-0.90;99.90;;;;;;5025858;28;20263;-47
2021/01/17 10:07:23;;;;;;;22.03;13.53;;;-0.90;99.90;;;;;;5016702;28;20186;-51
2021/01/17 10:09:50;;;;;;;22.73;11.93;;;-0.90;99.90;;;;;;5023436;28;20241;-53
2021/01/17 10:12:19;;;;;;;22.27;12.30;;;-0.80;99.90;;;;;;5009830;28;20200;-51
2021/01/17 10:14:45;;;;;;;23.67;12.43;;;-0.80;99.90;;;;;;5025202;28;20262;-48
2021/01/17 10:17:10;;;;;;;20.73;12.20;;;-0.80;99.90;;;;;;5028933;28;20218;-48
2021/01/17 10:19:38;;;;;;;19.47;11.67;;;-0.80;99.90;;;;;;5024340;28;20191;-53
2021/01/17 10:22:05;;;;;;;19.20;11.73;;;-0.70;99.90;;;;;;5021973;28;20696;-49
2021/01/17 10:24:33;;;;;;;22.03;12.17;;;-0.70;99.90;;;;;;5024680;28;20345;-56
2021/01/17 10:27:03;;;;;;;19.47;10.70;;;-0.70;99.90;;;;;;5005128;28;20745;-53
2021/01/17 10:29:34;;;;;;;20.60;11.97;;;-0.60;99.90;;;;;;5023110;28;20549;-54
2021/01/17 10:32:05;;;;;;;19.73;11.83;;;-0.60;99.90;;;;;;5018606;28;20195;-47
2021/01/17 10:34:33;;;;;;;18.20;11.70;;;-0.60;99.90;;;;;;5022146;28;20246;-53
2021/01/17 10:37:05;;;;;;;23.97;11.70;;;-0.50;99.90;;;;;;5022051;28;20654;-53
2021/01/17 10:39:32;;;;;;;20.93;12.03;;;-0.50;99.90;;;;;;5013141;28;20212;-51
2021/01/17 10:42:18;;;;;;;22.27;11.53;;;-0.50;99.90;;;;;;5006957;28;20641;-54
2021/01/17 10:45:10;;;;;;;20.13;12.03;;;-0.40;99.90;;;;;;5013991;28;20269;-49
2021/01/17 10:48:00;;;;;;;19.50;11.13;;;-0.40;99.90;;;;;;5020012;28;20380;-48
2021/01/17 10:50:28;;;;;;;19.40;10.53;;;-0.40;99.90;;;;;;5021825;28;20185;-49
2021/01/17 10:53:15;;;;;;;18.00;11.03;;;-0.40;99.90;;;;;;5023122;28;20197;-49
2021/01/17 10:55:45;;;;;;;20.00;11.40;;;-0.30;99.90;;;;;;5016270;28;20192;-51
2021/01/17 10:58:16;;;;;;;20.73;11.23;;;-0.30;99.90;;;;;;5006268;28;20275;-50
2021/01/17 11:00:59;;;;;;;17.93;10.90;;;-0.20;99.90;;;;;;5021489;28;20188;-48
2021/01/17 11:03:32;;;;;;;19.07;10.87;;;-0.20;99.90;;;;;;5023873;28;20220;-54
2021/01/17 11:06:12;;;;;;;19.60;11.30;;;-0.20;99.90;;;;;;5024955;28;20189;-49
2021/01/17 11:08:53;;;;;;;21.17;11.33;;;-0.20;99.90;;;;;;5020990;28;20170;-53
2021/01/17 11:11:29;;;;;;;18.77;10.33;;;-0.10;99.90;;;;;;5020252;28;20199;-54
2021/01/17 11:14:03;;;;;;;18.80;11.00;;;0.00;99.90;;;;;;5002788;28;20208;-52
2021/01/17 11:16:43;;;;;;;19.63;11.00;;;0.00;99.90;;;;;;5016298;28;20188;-54
2021/01/17 11:19:11;;;;;;;17.60;10.37;;;0.10;99.90;;;;;;5021274;28;20238;-52
2021/01/17 11:21:37;;;;;;;19.57;10.90;;;0.10;99.90;;;;;;5025648;28;20198;-51
2021/01/17 11:24:04;;;;;;;19.07;10.70;;;0.10;99.90;;;;;;5022024;28;20294;-51
2021/01/17 11:26:29;;;;;;;21.10;10.80;;;0.10;99.90;;;;;;5020965;28;20200;-50
2021/01/17 11:29:00;;;;;;;16.87;9.93;;;0.10;99.90;;;;;;5010467;28;20196;-49
2021/01/17 11:31:26;;;;;;;15.87;10.07;;;0.10;99.90;;;;;;5021819;28;20235;-49
2021/01/17 11:33:53;;;;;;;16.53;9.83;;;0.10;99.90;;;;;;5024899;28;20228;-52
2021/01/17 11:36:22;;;;;;;17.80;10.60;;;0.10;99.90;;;;;;5022164;28;20910;-52
2021/01/17 11:38:54;;;;;;;16.00;9.70;;;0.10;99.90;;;;;;5026546;28;20185;-54
2021/01/17 11:41:23;;;;;;;15.67;10.03;;;0.10;99.90;;;;;;5021335;28;20197;-48
2021/01/17 11:43:50;;;;;;;18.03;10.33;;;0.10;99.90;;;;;;5009186;28;20718;-52
2021/01/17 11:46:16;;;;;;;17.87;10.10;;;0.10;99.90;;;;;;5021166;28;20328;-49
2021/01/17 11:48:43;;;;;;;17.50;11.20;;;0.10;99.90;;;;;;5016674;28;20208;-47
2021/01/17 11:51:10;;;;;;;19.50;10.50;;;0.10;99.90;;;;;;5020121;28;20181;-50
2021/01/17 11:53:36;;;;;;;16.97;10.37;;;0.10;99.90;;;;;;5024128;28;20628;-50
2021/01/17 11:56:02;;;;;;;18.00;10.70;;;0.10;99.90;;;;;;5016913;28;20197;-51
2021/01/17 11:58:37;;;;;;;17.33;10.80;;;0.10;99.90;;;;;;5020111;28;20201;-52
2021/01/17 12:01:03;;;;;;;19.33;10.83;;;0.10;99.90;;;;;;5006987;28;20292;-50
2021/01/17 12:03:36;;;;;;;15.87;10.13;;;0.10;99.90;;;;;;5023653;28;20209;-51
2021/01/17 12:06:16;;;;;;;18.57;9.97;;;0.10;99.90;;;;;;5018967;28;20195;-52
2021/01/17 12:08:57;;;;;;;15.50;9.93;;;0.10;99.90;;;;;;5019566;28;20719;-54
2021/01/17 12:11:44;;;;;;;17.60;10.97;;;0.10;99.90;;;;;;5019990;28;20188;-51
2021/01/17 12:14:19;;;;;;;21.00;11.43;;;0.10;99.90;;;;;;5013396;28;20200;-53
2021/01/17 12:16:49;;;;;;;19.07;10.47;;;0.10;99.90;;;;;;5010061;28;20739;-50
2021/01/17 12:19:15;;;;;;;18.80;11.03;;;0.20;99.90;;;;;;5020879;28;20182;-54
2021/01/17 12:21:42;;;;;;;17.87;10.43;;;0.30;99.90;;;;;;5023509;28;20641;-51
2021/01/17 12:24:10;;;;;;;17.30;10.73;;;0.30;99.90;;;;;;5019490;28;20224;-47
2021/01/17 12:26:37;;;;;;;20.53;11.43;;;0.40;99.90;;;;;;5023423;28;20173;-51
2021/01/17 12:29:04;;;;;;;19.33;11.00;;;0.40;99.90;;;;;;5015682;28;20193;-54
2021/01/17 12:31:29;;;;;;;17.03;10.27;;;0.50;99.90;;;;;;5009208;28;20242;-49
2021/01/17 12:33:56;;;;;;;19.20;11.10;;;0.50;99.90;;;;;;5020970;28;20216;-52
2021/01/17 12:36:24;;;;;;;13.83;10.30;;;0.60;99.90;;;;;;5020295;28;20324;-53
2021/01/17 12:38:50;;;;;;;18.17;11.27;;;0.70;99.90;;;;;;5021642;28;20193;-54
2021/01/17 12:41:21;;;;;;;15.50;10.03;;;0.70;99.90;;;;;;5020294;28;20268;-51